createdAt,value
2018-11-06T00:02:23.644Z,79.67
2018-11-06T00:04:57.024Z,79.88
2018-11-06T00:07:25.099Z,79.87
2018-11-06T00:09:53.173Z,79.22
2018-11-06T00:12:21.251Z,79.12
2018-11-06T00:14:49.341Z,79.54
2018-11-06T00:17:17.454Z,79.18
2018-11-06T00:19:45.531Z,79.24
2018-11-06T00:22:13.602Z,80.14
2018-11-06T00:24:41.647Z,79.78
2018-11-06T00:27:09.739Z,79.45
2018-11-06T00:29:37.792Z,79.76
2018-11-06T00:32:05.891Z,79.46
2018-11-06T00:34:33.951Z,79.54
2018-11-06T00:37:02.025Z,79.72
2018-11-06T00:39:30.084Z,79.79
2018-11-06T00:41:58.162Z,79.93
2018-11-06T00:44:26.203Z,80.04
2018-11-06T00:46:54.271Z,80.35
2018-11-06T00:49:22.336Z,80.86
2018-11-06T00:51:50.420Z,80.34
2018-11-06T00:54:18.478Z,80.49
2018-11-06T00:56:46.577Z,81.04
2018-11-06T00:59:14.632Z,80.80
2018-11-06T01:01:42.727Z,81.33
2018-11-06T01:04:13.131Z,81.04
2018-11-06T01:06:41.248Z,81.18
2018-11-06T01:09:11.948Z,81.11
2018-11-06T01:11:40.741Z,81.47
2018-11-06T01:14:09.004Z,81.53
2018-11-06T01:16:37.083Z,81.42
2018-11-06T01:19:05.453Z,81.29
2018-11-06T01:21:33.592Z,81.86
2018-11-06T01:24:01.668Z,81.83
2018-11-06T01:26:29.735Z,81.72
2018-11-06T01:28:57.815Z,81.92
2018-11-06T01:31:26.120Z,81.49
2018-11-06T01:33:54.191Z,81.60
2018-11-06T01:36:22.280Z,81.70
2018-11-06T01:38:50.357Z,81.36
2018-11-06T01:41:18.511Z,81.96
2018-11-06T01:43:46.664Z,81.64
2018-11-06T01:46:14.740Z,82.37
2018-11-06T01:48:42.840Z,81.75
2018-11-06T01:51:10.900Z,81.42
2018-11-06T01:53:38.996Z,81.51
2018-11-06T01:56:07.093Z,81.79
2018-11-06T01:58:35.404Z,82.29
2018-11-06T02:01:03.589Z,82.15
2018-11-06T02:03:31.665Z,81.89
2018-11-06T02:05:59.740Z,81.76
2018-11-06T02:08:27.816Z,81.81
2018-11-06T02:10:55.876Z,81.65
2018-11-06T02:13:23.964Z,81.65
2018-11-06T02:15:52.058Z,81.36
2018-11-06T02:18:20.133Z,81.22
2018-11-06T02:20:48.205Z,81.55
2018-11-06T02:23:16.271Z,81.80
2018-11-06T02:25:44.337Z,82.02
2018-11-06T02:28:12.403Z,81.62
2018-11-06T02:30:40.481Z,82.13
2018-11-06T02:33:08.559Z,81.59
2018-11-06T02:35:36.619Z,81.52
2018-11-06T02:38:04.772Z,81.69
2018-11-06T02:40:32.829Z,81.92
2018-11-06T02:43:00.909Z,81.77
2018-11-06T02:45:28.980Z,81.59
2018-11-06T02:47:57.059Z,81.50
2018-11-06T02:50:25.149Z,81.58
2018-11-06T02:52:53.242Z,81.81
2018-11-06T02:55:21.307Z,81.06
2018-11-06T02:57:49.400Z,81.09
2018-11-06T03:00:18.064Z,82.07
2018-11-06T03:02:47.167Z,81.79
2018-11-06T03:05:16.210Z,81.64
2018-11-06T03:07:44.319Z,82.10
2018-11-06T03:10:13.264Z,81.99
2018-11-06T03:12:42.419Z,81.82
2018-11-06T03:15:11.716Z,81.62
2018-11-06T03:17:39.783Z,81.41
2018-11-06T03:20:08.944Z,81.61
2018-11-06T03:22:37.029Z,82.08
2018-11-06T03:25:05.319Z,82.12
2018-11-06T03:27:33.428Z,82.26
2018-11-06T03:30:01.558Z,81.92
2018-11-06T03:32:29.655Z,82.01
2018-11-06T03:34:57.841Z,82.38
2018-11-06T03:37:25.916Z,82.43
2018-11-06T03:39:53.979Z,81.78
2018-11-06T03:42:22.051Z,82.50
2018-11-06T03:44:50.128Z,82.17
2018-11-06T03:47:18.192Z,81.44
2018-11-06T03:49:46.276Z,81.77
2018-11-06T03:52:14.347Z,81.84
2018-11-06T03:54:42.426Z,81.63
2018-11-06T03:57:10.507Z,82.23
2018-11-06T03:59:38.585Z,81.63
2018-11-06T04:02:06.672Z,81.72
2018-11-06T04:04:34.760Z,82.08
2018-11-06T04:07:02.840Z,82.01
2018-11-06T04:09:30.926Z,81.31
2018-11-06T04:11:59.009Z,81.53
2018-11-06T04:14:27.096Z,80.94
2018-11-06T04:16:55.172Z,81.25
2018-11-06T04:19:23.248Z,81.30
2018-11-06T04:21:51.324Z,81.85
2018-11-06T04:24:19.401Z,82.00
2018-11-06T04:26:47.476Z,81.58
2018-11-06T04:29:15.546Z,81.29
2018-11-06T04:31:43.615Z,80.93
2018-11-06T04:34:11.682Z,81.24
2018-11-06T04:36:39.751Z,81.21
2018-11-06T04:39:09.265Z,80.77
2018-11-06T04:41:37.325Z,80.88
2018-11-06T04:44:06.214Z,80.90
2018-11-06T04:46:34.292Z,81.49
2018-11-06T04:49:02.368Z,81.61
2018-11-06T04:51:30.432Z,81.63
2018-11-06T04:53:59.327Z,81.34
2018-11-06T04:56:28.218Z,81.40
2018-11-06T04:58:56.317Z,81.46
2018-11-06T05:01:24.757Z,80.86
2018-11-06T05:03:52.827Z,81.37
2018-11-06T05:06:20.897Z,80.92
2018-11-06T05:08:49.001Z,81.50
2018-11-06T05:11:17.081Z,81.44
2018-11-06T05:13:45.168Z,81.16
2018-11-06T05:16:13.238Z,80.50
2018-11-06T05:18:41.321Z,80.79
2018-11-06T05:21:09.395Z,81.36
2018-11-06T05:23:37.472Z,80.97
2018-11-06T05:26:05.566Z,81.07
2018-11-06T05:28:33.735Z,80.79
2018-11-06T05:31:01.820Z,80.99
2018-11-06T05:33:29.873Z,80.98
2018-11-06T05:35:57.954Z,81.19
2018-11-06T05:38:26.012Z,80.62
2018-11-06T05:41:13.482Z,80.83
2018-11-06T05:43:41.564Z,80.82
2018-11-06T05:46:10.089Z,80.38
2018-11-06T05:48:38.985Z,80.91
2018-11-06T05:51:07.056Z,80.40
2018-11-06T05:53:35.127Z,81.04
2018-11-06T05:56:03.204Z,81.01
2018-11-06T05:58:31.266Z,80.66
2018-11-06T06:00:59.339Z,80.93
2018-11-06T06:03:27.424Z,80.24
2018-11-06T06:05:55.489Z,80.82
2018-11-06T06:08:23.547Z,80.77
2018-11-06T06:10:51.642Z,80.32
2018-11-06T06:13:19.705Z,80.81
2018-11-06T06:15:47.773Z,80.78
2018-11-06T06:18:15.849Z,81.45
2018-11-06T06:20:43.966Z,80.74
2018-11-06T06:23:12.347Z,81.43
2018-11-06T06:25:40.427Z,80.84
2018-11-06T06:28:08.520Z,81.47
2018-11-06T06:30:36.654Z,81.39
2018-11-06T06:33:04.855Z,81.54
2018-11-06T06:35:33.259Z,80.89
2018-11-06T06:38:01.398Z,81.40
2018-11-06T06:40:29.540Z,81.58
2018-11-06T06:42:57.643Z,81.17
2018-11-06T06:45:25.816Z,81.32
2018-11-06T06:50:28.487Z,81.26
2018-11-06T06:52:56.638Z,81.43
2018-11-06T06:55:24.797Z,81.69
2018-11-06T06:57:52.928Z,81.79
2018-11-06T07:00:22.143Z,81.43
2018-11-06T07:02:50.367Z,81.03
2018-11-06T07:05:19.836Z,81.24
2018-11-06T07:07:48.010Z,81.59
2018-11-06T07:10:17.677Z,81.92
2018-11-06T07:12:46.727Z,81.74
2018-11-06T07:15:16.013Z,81.85
2018-11-06T07:17:45.016Z,81.56
2018-11-06T07:20:14.441Z,81.27
2018-11-06T07:22:42.572Z,80.82
2018-11-06T07:25:11.541Z,80.79
2018-11-06T07:27:40.412Z,81.39
2018-11-06T07:30:10.444Z,81.17
2018-11-06T07:32:38.949Z,81.26
2018-11-06T07:35:08.635Z,81.14
2018-11-06T07:37:37.029Z,81.40
2018-11-06T07:40:05.912Z,81.71
2018-11-06T07:42:34.016Z,81.03
2018-11-06T07:45:02.110Z,81.44
2018-11-06T07:47:30.548Z,81.13
2018-11-06T07:49:58.751Z,80.84
2018-11-06T07:52:26.851Z,81.12
2018-11-06T07:54:54.981Z,81.11
2018-11-06T07:57:23.073Z,80.71
2018-11-06T07:59:51.169Z,81.29
2018-11-06T08:02:19.583Z,81.16
2018-11-06T08:04:47.715Z,81.31
2018-11-06T08:07:15.820Z,81.69
2018-11-06T08:09:43.881Z,81.60
2018-11-06T08:12:11.934Z,81.00
2018-11-06T08:14:40.048Z,80.63
2018-11-06T08:17:08.372Z,80.52
2018-11-06T08:19:36.433Z,80.81
2018-11-06T08:22:04.520Z,80.18
2018-11-06T08:24:32.590Z,81.02
2018-11-06T08:27:00.663Z,80.77
2018-11-06T08:29:34.472Z,80.38
2018-11-06T08:32:06.798Z,80.58
2018-11-06T08:34:34.811Z,80.04
2018-11-06T08:37:02.912Z,80.64
2018-11-06T08:39:30.970Z,80.92
2018-11-06T08:41:59.056Z,80.53
2018-11-06T08:44:27.105Z,80.50
2018-11-06T08:46:55.195Z,79.95
2018-11-06T08:49:23.283Z,80.35
2018-11-06T08:51:51.378Z,80.00
2018-11-06T08:54:19.455Z,80.75
2018-11-06T08:56:47.532Z,80.38
2018-11-06T08:59:15.648Z,80.35
2018-11-06T09:01:43.776Z,80.09
2018-11-06T09:04:11.852Z,80.79
2018-11-06T09:06:39.996Z,80.38
2018-11-06T09:09:08.795Z,79.75
2018-11-06T09:11:36.905Z,80.05
2018-11-06T09:14:05.010Z,79.35
2018-11-06T09:16:33.025Z,79.51
2018-11-06T09:19:01.097Z,78.61
2018-11-06T09:21:29.152Z,78.70
2018-11-06T09:23:57.228Z,78.78
2018-11-06T09:26:25.292Z,79.24
2018-11-06T09:28:53.475Z,78.93
2018-11-06T09:31:21.553Z,78.89
2018-11-06T09:33:49.649Z,78.87
2018-11-06T09:36:17.751Z,78.78
2018-11-06T09:38:45.820Z,78.23
2018-11-06T09:41:14.278Z,77.59
2018-11-06T09:43:42.364Z,77.17
2018-11-06T09:46:10.437Z,76.87
2018-11-06T09:48:38.894Z,76.73
2018-11-06T09:51:07.872Z,77.05
2018-11-06T09:59:03.522Z,74.35
2018-11-06T10:01:31.853Z,73.87
2018-11-06T10:03:59.936Z,73.46
2018-11-06T10:06:28.188Z,72.89
2018-11-06T10:08:56.200Z,72.42
2018-11-06T10:11:24.299Z,72.29
2018-11-06T10:13:52.368Z,71.54
2018-11-06T10:16:20.464Z,70.70
2018-11-06T10:18:48.656Z,70.41
2018-11-06T10:21:16.748Z,70.44
2018-11-06T10:23:44.863Z,69.89
2018-11-06T10:26:12.933Z,69.81
2018-11-06T10:28:41.017Z,69.41
2018-11-06T10:31:09.080Z,69.15
2018-11-06T10:33:37.200Z,68.46
2018-11-06T10:36:05.442Z,68.67
2018-11-06T10:38:33.516Z,67.75
2018-11-06T10:41:01.601Z,67.99
2018-11-06T10:43:29.697Z,67.70
2018-11-06T10:45:57.752Z,67.74
2018-11-06T10:48:26.104Z,67.51
2018-11-06T10:50:54.178Z,67.48
2018-11-06T10:53:22.238Z,67.06
2018-11-06T10:55:50.308Z,66.48
2018-11-06T10:58:18.406Z,66.47
2018-11-06T11:00:51.817Z,66.32
2018-11-06T11:03:25.149Z,66.34
2018-11-06T11:05:53.232Z,66.22
2018-11-06T11:08:21.284Z,65.68
2018-11-06T11:10:49.380Z,65.90
2018-11-06T11:13:17.548Z,65.58
2018-11-06T11:15:45.540Z,65.33
2018-11-06T11:18:13.611Z,64.77
2018-11-06T11:20:41.704Z,64.40
2018-11-06T11:23:09.777Z,64.58
2018-11-06T11:25:37.894Z,64.16
2018-11-06T11:28:05.954Z,63.79
2018-11-06T11:30:34.048Z,63.52
2018-11-06T11:33:02.114Z,63.47
2018-11-06T11:35:30.220Z,62.88
2018-11-06T11:37:58.309Z,62.75
2018-11-06T11:40:26.385Z,62.28
2018-11-06T11:42:54.446Z,63.05
2018-11-06T11:45:22.512Z,62.56
2018-11-06T11:47:50.592Z,61.68
2018-11-06T11:50:18.655Z,61.94
2018-11-06T11:52:46.729Z,61.31
2018-11-06T11:55:14.833Z,61.80
2018-11-06T11:57:43.779Z,61.87
2018-11-06T12:00:14.245Z,61.44
2018-11-06T12:02:42.338Z,60.97
2018-11-06T12:05:11.224Z,60.18
2018-11-06T12:07:39.289Z,62.27
2018-11-06T12:10:08.889Z,60.80
2018-11-06T12:12:36.944Z,60.10
2018-11-06T12:15:07.000Z,60.05
2018-11-06T12:17:35.080Z,59.85
2018-11-06T12:20:03.133Z,59.72
2018-11-06T12:22:31.196Z,59.19
2018-11-06T12:24:59.445Z,59.69
2018-11-06T12:27:27.348Z,61.33
2018-11-06T12:29:55.401Z,59.37
2018-11-06T12:32:23.470Z,59.67
2018-11-06T12:34:51.516Z,59.84
2018-11-06T12:37:19.584Z,59.34
2018-11-06T12:39:47.697Z,59.00
2018-11-06T12:42:15.756Z,59.48
2018-11-06T12:44:44.092Z,60.00
2018-11-06T12:47:12.212Z,59.14
2018-11-06T12:49:40.261Z,60.16
2018-11-06T12:52:08.314Z,59.39
2018-11-06T12:54:36.424Z,59.81
2018-11-06T12:57:04.485Z,59.83
2018-11-06T12:59:32.524Z,60.28
2018-11-06T13:02:00.596Z,60.25
2018-11-06T13:04:28.660Z,60.23
2018-11-06T13:06:56.797Z,60.63
2018-11-06T13:09:24.894Z,60.26
2018-11-06T13:11:52.983Z,60.50
2018-11-06T13:14:21.076Z,60.18
2018-11-06T13:16:49.170Z,60.63
2018-11-06T13:19:17.242Z,61.09
2018-11-06T13:21:45.348Z,60.83
2018-11-06T13:24:13.444Z,61.14
2018-11-06T13:26:41.642Z,61.00
2018-11-06T13:29:09.677Z,60.97
2018-11-06T13:31:37.744Z,61.03
2018-11-06T13:34:05.829Z,61.19
2018-11-06T13:36:33.891Z,61.27
2018-11-06T13:39:01.980Z,61.41
2018-11-06T13:41:30.063Z,61.49
2018-11-06T13:43:58.290Z,61.54
2018-11-06T13:46:26.221Z,61.38
2018-11-06T13:48:54.312Z,61.89
2018-11-06T13:51:22.369Z,61.33
2018-11-06T13:53:50.464Z,61.72
2018-11-06T13:56:18.584Z,61.95
2018-11-06T13:58:46.660Z,61.81
2018-11-06T14:01:14.767Z,62.68
2018-11-06T14:03:42.868Z,62.36
2018-11-06T14:06:10.937Z,62.48
2018-11-06T14:08:39.026Z,62.58
2018-11-06T14:11:07.080Z,62.75
2018-11-06T14:13:35.164Z,62.77
2018-11-06T14:16:03.228Z,62.97
2018-11-06T14:18:31.341Z,63.22
2018-11-06T14:20:59.397Z,63.30
2018-11-06T14:23:27.477Z,63.35
2018-11-06T14:25:55.524Z,63.38
2018-11-06T14:28:23.584Z,63.31
2018-11-06T14:30:51.655Z,63.76
2018-11-06T14:33:19.725Z,63.75
2018-11-06T14:35:47.845Z,63.93
2018-11-06T14:38:15.897Z,64.08
2018-11-06T14:40:43.980Z,64.04
2018-11-06T14:43:12.048Z,64.50
2018-11-06T14:45:40.132Z,64.31
2018-11-06T14:48:08.229Z,64.73
2018-11-06T14:50:36.280Z,64.82
2018-11-06T14:53:04.392Z,64.95
2018-11-06T14:55:32.464Z,65.16
2018-11-06T14:58:00.522Z,65.31
2018-11-06T15:00:28.617Z,65.52
2018-11-06T15:02:56.671Z,65.23
2018-11-06T15:05:24.784Z,65.77
2018-11-06T15:07:52.803Z,65.86
2018-11-06T15:10:20.875Z,66.22
2018-11-06T15:12:49.013Z,66.31
2018-11-06T15:15:17.637Z,66.79
2018-11-06T15:17:46.596Z,67.01
2018-11-06T15:20:17.060Z,67.18
2018-11-06T15:22:45.523Z,67.12
2018-11-06T15:25:14.356Z,67.29
2018-11-06T15:27:42.408Z,67.56
2018-11-06T15:30:12.505Z,67.68
2018-11-06T15:32:41.187Z,68.09
2018-11-06T15:35:10.439Z,67.98
2018-11-06T15:37:38.761Z,68.10
2018-11-06T15:40:09.912Z,68.26
2018-11-06T15:42:38.050Z,68.49
2018-11-06T15:45:06.964Z,68.35
2018-11-06T15:47:35.049Z,68.93
2018-11-06T15:50:03.305Z,68.74
2018-11-06T15:52:31.389Z,68.77
2018-11-06T15:54:59.821Z,69.53
2018-11-06T15:57:27.892Z,69.84
2018-11-06T15:59:55.964Z,69.63
2018-11-06T16:02:24.081Z,70.04
2018-11-06T16:04:52.149Z,70.06
2018-11-06T16:07:20.232Z,70.87
2018-11-06T16:09:48.325Z,71.38
2018-11-06T16:12:16.472Z,71.39
2018-11-06T16:14:44.682Z,71.38
2018-11-06T16:17:12.812Z,71.38
2018-11-06T16:19:40.893Z,71.73
2018-11-06T16:22:09.081Z,72.55
2018-11-06T16:24:37.248Z,72.15
2018-11-06T16:27:05.828Z,72.61
2018-11-06T16:29:33.934Z,72.54
2018-11-06T16:32:02.092Z,73.38
2018-11-06T16:34:30.221Z,73.10
2018-11-06T16:36:58.296Z,72.88
2018-11-06T16:39:26.421Z,72.59
2018-11-06T16:41:54.565Z,73.18
2018-11-06T16:44:22.645Z,73.67
2018-11-06T16:46:50.796Z,72.96
2018-11-06T16:49:18.867Z,73.60
2018-11-06T16:51:46.945Z,73.75
2018-11-06T16:54:15.008Z,73.69
2018-11-06T16:56:43.108Z,73.75
2018-11-06T16:59:11.189Z,73.93
2018-11-06T17:01:39.267Z,73.93
2018-11-06T17:04:07.336Z,74.02
2018-11-06T17:06:39.684Z,73.50
2018-11-06T17:09:08.713Z,74.16
2018-11-06T17:11:37.136Z,74.12
2018-11-06T17:14:05.256Z,74.24
2018-11-06T17:16:33.440Z,74.22
2018-11-06T17:19:01.520Z,74.63
2018-11-06T17:21:29.596Z,74.86
2018-11-06T17:23:57.705Z,74.46
2018-11-06T17:26:25.785Z,74.81
2018-11-06T17:28:53.852Z,74.39
2018-11-06T17:31:21.965Z,75.01
2018-11-06T17:33:50.064Z,74.96
2018-11-06T17:36:18.169Z,74.65
2018-11-06T17:38:46.259Z,75.17
2018-11-06T17:41:14.366Z,75.18
2018-11-06T17:43:42.452Z,74.89
2018-11-06T17:46:10.536Z,74.62
2018-11-06T17:48:38.724Z,74.71
2018-11-06T17:51:06.788Z,74.78
2018-11-06T17:53:34.884Z,74.58
2018-11-06T17:56:03.008Z,74.54
2018-11-06T17:58:31.092Z,75.14
2018-11-06T18:00:59.169Z,74.86
2018-11-06T18:03:27.253Z,75.02
2018-11-06T18:05:55.323Z,74.25
2018-11-06T18:08:23.408Z,74.27
2018-11-06T18:10:51.492Z,74.44
2018-11-06T18:13:19.578Z,73.86
2018-11-06T18:15:47.640Z,73.90
2018-11-06T18:18:15.735Z,74.46
2018-11-06T18:20:43.814Z,73.88
2018-11-06T18:23:11.940Z,74.33
2018-11-06T18:25:40.098Z,74.26
2018-11-06T18:28:08.096Z,74.04
2018-11-06T18:30:36.177Z,73.65
2018-11-06T18:33:04.290Z,74.08
2018-11-06T18:35:32.383Z,73.67
2018-11-06T18:38:00.448Z,74.23
2018-11-06T18:40:28.508Z,74.45
2018-11-06T18:42:56.595Z,74.01
2018-11-06T18:45:24.676Z,74.78
2018-11-06T18:47:52.804Z,74.83
2018-11-06T18:50:20.896Z,74.06
2018-11-06T18:52:50.117Z,74.55
2018-11-06T18:55:18.332Z,74.59
2018-11-06T18:57:46.435Z,74.94
2018-11-06T19:00:15.888Z,75.15
2018-11-06T19:02:45.272Z,75.11
2018-11-06T19:05:13.549Z,74.99
2018-11-06T19:07:41.624Z,74.66
2018-11-06T19:10:10.950Z,75.11
2018-11-06T19:12:39.079Z,75.01
2018-11-06T19:15:09.832Z,74.78
2018-11-06T19:17:37.904Z,75.29
2018-11-06T19:20:06.602Z,75.04
2018-11-06T19:22:35.052Z,75.03
2018-11-06T19:25:03.131Z,74.92
2018-11-06T19:27:31.260Z,74.94
2018-11-06T19:29:59.345Z,74.81
2018-11-06T19:32:27.428Z,74.86
2018-11-06T19:34:55.601Z,74.74
2018-11-06T19:37:23.794Z,75.20
2018-11-06T19:39:53.719Z,75.56
2018-11-06T19:42:22.540Z,75.96
2018-11-06T19:44:50.616Z,75.52
2018-11-06T19:47:18.803Z,76.14
2018-11-06T19:49:46.801Z,75.78
2018-11-06T19:52:14.900Z,76.31
2018-11-06T19:54:42.967Z,75.98
2018-11-06T19:57:11.103Z,75.74
2018-11-06T19:59:39.229Z,76.17
2018-11-06T20:02:07.558Z,76.34
2018-11-06T20:04:35.885Z,76.30
2018-11-06T20:07:03.912Z,75.61
2018-11-06T20:09:32.018Z,76.16
2018-11-06T20:12:00.226Z,76.14
2018-11-06T20:14:28.197Z,75.97
2018-11-06T20:16:56.244Z,76.36
2018-11-06T20:19:24.620Z,76.44
2018-11-06T20:21:52.695Z,76.67
2018-11-06T20:24:20.808Z,77.16
2018-11-06T20:26:48.902Z,76.99
2018-11-06T20:29:17.033Z,77.90
2018-11-06T20:31:45.166Z,77.10
2018-11-06T20:34:13.590Z,77.78
2018-11-06T20:36:41.663Z,77.46
2018-11-06T20:39:10.568Z,77.44
2018-11-06T20:41:38.713Z,77.37
2018-11-06T20:44:06.840Z,77.42
2018-11-06T20:46:35.294Z,78.12
2018-11-06T20:49:03.962Z,77.35
2018-11-06T20:51:31.996Z,77.59
2018-11-06T20:54:00.062Z,77.63
2018-11-06T20:56:28.204Z,77.56
2018-11-06T20:58:56.377Z,77.93
2018-11-06T21:01:24.513Z,77.58
2018-11-06T21:03:52.614Z,77.94
2018-11-06T21:06:20.739Z,77.87
2018-11-06T21:08:48.815Z,77.55
2018-11-06T21:11:16.932Z,77.91
2018-11-06T21:13:45.070Z,77.73
2018-11-06T21:16:13.247Z,77.70
2018-11-06T21:18:41.328Z,78.27
2018-11-06T21:21:09.432Z,78.18
2018-11-06T21:23:37.516Z,78.37
2018-11-06T21:26:06.030Z,78.13
2018-11-06T21:28:33.933Z,78.31
2018-11-06T21:31:02.035Z,78.11
2018-11-06T21:33:30.124Z,78.25
2018-11-06T21:35:58.224Z,78.65
2018-11-06T21:38:26.308Z,78.07
2018-11-06T21:40:54.496Z,78.35
2018-11-06T21:43:22.592Z,77.74
2018-11-06T21:45:50.732Z,78.07
2018-11-06T21:48:18.844Z,77.83
2018-11-06T21:50:46.929Z,77.30
2018-11-06T21:53:14.996Z,77.43
2018-11-06T21:55:43.092Z,77.62
2018-11-06T21:58:11.192Z,76.73
2018-11-06T22:00:39.302Z,76.86
2018-11-06T22:03:07.408Z,77.01
2018-11-06T22:05:36.004Z,76.64
2018-11-06T22:08:04.515Z,77.19
2018-11-06T22:10:32.629Z,76.69
2018-11-06T22:13:01.035Z,76.95
2018-11-06T22:15:29.166Z,77.12
2018-11-06T22:17:57.308Z,76.81
2018-11-06T22:20:25.406Z,76.41
2018-11-06T22:22:53.497Z,76.81
2018-11-06T22:25:21.589Z,77.35
2018-11-06T22:27:49.886Z,76.77
2018-11-06T22:30:18.092Z,77.53
2018-11-06T22:32:46.755Z,77.80
2018-11-06T22:35:16.729Z,78.00
2018-11-06T22:37:45.188Z,77.55
2018-11-06T22:40:14.673Z,77.53
2018-11-06T22:42:42.952Z,78.48
2018-11-06T22:45:13.249Z,78.01
2018-11-06T22:47:41.666Z,78.24
2018-11-06T22:50:11.769Z,78.42
2018-11-06T22:52:40.081Z,78.21
2018-11-06T22:55:08.477Z,78.68
2018-11-06T22:57:36.585Z,78.73
2018-11-06T23:00:08.940Z,78.67
2018-11-06T23:02:37.805Z,78.31
2018-11-06T23:05:06.251Z,78.09
2018-11-06T23:08:37.220Z,78.24
2018-11-06T23:11:06.472Z,77.75
2018-11-06T23:13:34.572Z,78.13
2018-11-06T23:16:02.908Z,78.36
2018-11-06T23:18:31.001Z,78.92
2018-11-06T23:20:59.132Z,78.56
2018-11-06T23:23:27.208Z,78.22
2018-11-06T23:25:55.289Z,78.66
2018-11-06T23:28:23.372Z,78.20
2018-11-06T23:30:51.461Z,78.16
2018-11-06T23:33:19.564Z,78.65
2018-11-06T23:35:47.717Z,78.17
2018-11-06T23:38:15.712Z,78.21
2018-11-06T23:40:43.836Z,78.47
2018-11-06T23:43:11.909Z,78.52
2018-11-06T23:45:39.992Z,78.45
2018-11-06T23:48:08.080Z,78.30
2018-11-06T23:50:36.136Z,78.66
2018-11-06T23:53:04.700Z,78.57
2018-11-06T23:55:32.772Z,78.10
2018-11-06T23:58:00.850Z,78.20
